createdAt,value
2023-06-29T00:00:07.511Z,1.70
2023-06-29T00:02:41.096Z,2.38
2023-06-29T00:05:11.881Z,1.90
2023-06-29T00:07:41.641Z,1.60
2023-06-29T00:10:12.004Z,1.83
2023-06-29T00:12:41.915Z,1.77
2023-06-29T00:15:12.119Z,2.15
2023-06-29T00:17:48.524Z,2.67
2023-06-29T00:20:19.098Z,1.80
2023-06-29T00:22:49.629Z,2.38
2023-06-29T00:25:22.311Z,1.98
2023-06-29T00:27:52.089Z,1.92
2023-06-29T00:30:23.366Z,1.73
2023-06-29T00:32:55.755Z,1.98
2023-06-29T00:35:25.466Z,2.50
2023-06-29T00:37:55.460Z,2.33
2023-06-29T00:40:25.226Z,2.50
2023-06-29T00:42:56.475Z,2.50
2023-06-29T00:45:26.436Z,2.60
2023-06-29T00:47:58.942Z,2.78
2023-06-29T00:50:29.027Z,2.45
2023-06-29T00:52:58.850Z,2.22
2023-06-29T00:55:28.658Z,2.28
2023-06-29T00:57:59.000Z,1.83
2023-06-29T01:00:28.866Z,2.25
2023-06-29T01:03:01.384Z,1.92
2023-06-29T01:05:35.764Z,2.08
2023-06-29T01:08:08.152Z,2.30
2023-06-29T01:10:41.870Z,2.00
2023-06-29T01:13:12.412Z,1.75
2023-06-29T01:15:43.290Z,2.28
2023-06-29T01:18:18.124Z,1.55
2023-06-29T01:20:50.081Z,1.88
2023-06-29T01:23:22.652Z,1.90
2023-06-29T01:25:59.031Z,1.70
2023-06-29T01:28:30.399Z,1.90
2023-06-29T01:31:04.095Z,1.75
2023-06-29T01:33:34.119Z,2.10
2023-06-29T01:36:06.201Z,2.05
2023-06-29T01:38:41.054Z,1.85
2023-06-29T01:41:14.815Z,1.80
2023-06-29T01:43:44.760Z,1.98
2023-06-29T01:46:14.573Z,2.00
2023-06-29T01:48:44.489Z,1.48
2023-06-29T01:51:17.472Z,1.75
2023-06-29T01:53:47.210Z,2.28
2023-06-29T01:56:20.641Z,1.75
2023-06-29T01:58:50.639Z,2.10
2023-06-29T02:01:20.446Z,1.90
2023-06-29T02:03:50.336Z,1.88
2023-06-29T02:06:20.139Z,1.77
2023-06-29T02:08:49.917Z,1.75
2023-06-29T02:11:22.240Z,2.00
2023-06-29T02:13:52.006Z,2.25
2023-06-29T02:16:22.050Z,1.83
2023-06-29T02:18:51.790Z,1.90
2023-06-29T02:21:21.721Z,1.95
2023-06-29T02:23:51.499Z,2.05
2023-06-29T02:26:23.808Z,1.85
2023-06-29T02:28:53.521Z,2.13
2023-06-29T02:31:26.680Z,2.15
2023-06-29T02:33:57.412Z,2.28
2023-06-29T02:36:27.179Z,2.20
2023-06-29T02:38:57.133Z,2.20
2023-06-29T02:41:29.480Z,2.00
2023-06-29T02:43:59.692Z,2.20
2023-06-29T02:46:29.627Z,2.58
2023-06-29T02:48:59.831Z,2.22
2023-06-29T02:51:29.647Z,2.35
2023-06-29T02:54:04.928Z,1.88
2023-06-29T02:56:37.351Z,2.55
2023-06-29T02:59:07.540Z,2.40
2023-06-29T03:01:37.646Z,2.30
2023-06-29T03:04:07.541Z,1.92
2023-06-29T03:06:37.540Z,2.50
2023-06-29T03:09:07.781Z,2.38
2023-06-29T03:11:40.786Z,2.22
2023-06-29T03:14:10.513Z,2.13
2023-06-29T03:16:40.391Z,2.50
2023-06-29T03:19:10.118Z,2.50
2023-06-29T03:21:39.834Z,1.67
2023-06-29T03:24:09.656Z,2.10
2023-06-29T03:26:41.971Z,2.88
2023-06-29T03:29:11.644Z,2.22
2023-06-29T03:31:41.383Z,2.30
2023-06-29T03:34:11.132Z,2.53
2023-06-29T03:36:40.898Z,2.58
2023-06-29T05:23:34.186Z,1.73
2023-06-29T05:26:03.927Z,1.88
2023-06-29T05:28:33.644Z,2.05
2023-06-29T05:31:03.435Z,2.10
2023-06-29T05:33:33.214Z,1.92
2023-06-29T05:36:03.799Z,2.30
2023-06-29T05:38:36.383Z,2.17
2023-06-29T05:41:06.772Z,2.25
2023-06-29T05:43:36.716Z,2.30
2023-06-29T05:46:06.882Z,1.90
2023-06-29T05:48:36.593Z,2.35
2023-06-29T05:51:06.372Z,2.50
2023-06-29T05:53:38.702Z,2.40
2023-06-29T05:56:08.544Z,2.28
2023-06-29T05:58:38.273Z,2.65
2023-06-29T06:01:08.337Z,2.08
2023-06-29T06:03:38.126Z,2.25
2023-06-29T06:06:07.836Z,2.10
2023-06-29T06:08:40.155Z,2.15
2023-06-29T06:11:09.864Z,2.08
2023-06-29T06:13:39.581Z,2.78
2023-06-29T06:16:09.409Z,1.90
2023-06-29T06:18:39.075Z,2.10
2023-06-29T06:21:08.767Z,1.83
2023-06-29T06:23:41.691Z,2.45
2023-06-29T06:26:11.395Z,2.50
2023-06-29T06:28:41.101Z,2.20
2023-06-29T06:31:20.477Z,2.50
2023-06-29T06:33:58.550Z,2.25
2023-06-29T06:36:31.457Z,2.58
2023-06-29T06:39:03.982Z,2.65
2023-06-29T06:41:33.992Z,2.35
2023-06-29T06:44:03.931Z,2.35
2023-06-29T06:46:34.229Z,2.40
2023-06-29T06:49:04.224Z,2.35
2023-06-29T06:51:33.932Z,2.75
2023-06-29T06:54:06.561Z,2.05
2023-06-29T06:56:36.329Z,1.85
2023-06-29T06:59:06.021Z,2.72
2023-06-29T07:01:35.820Z,1.98
2023-06-29T07:04:05.598Z,1.98
2023-06-29T07:06:35.316Z,2.17
2023-06-29T07:09:08.534Z,2.58
2023-06-29T07:11:40.290Z,2.13
2023-06-29T07:14:09.985Z,2.05
2023-06-29T07:16:39.786Z,1.90
2023-06-29T07:21:43.621Z,2.35
2023-06-29T07:24:15.975Z,1.95
2023-06-29T07:26:45.716Z,2.00
2023-06-29T07:29:15.443Z,2.15
2023-06-29T07:31:45.164Z,1.65
2023-06-29T07:34:15.460Z,1.50
2023-06-29T07:36:45.164Z,1.95
2023-06-29T07:39:18.130Z,1.80
2023-06-29T07:41:47.840Z,1.75
2023-06-29T07:44:17.556Z,1.90
2023-06-29T07:46:47.281Z,1.85
2023-06-29T07:49:17.129Z,1.80
2023-06-29T07:51:47.025Z,1.83
2023-06-29T07:54:19.704Z,2.13
2023-06-29T07:59:22.124Z,1.70
2023-06-29T08:01:52.264Z,1.90
2023-06-29T08:06:54.813Z,1.70
2023-06-29T08:09:27.256Z,1.70
2023-06-29T08:11:56.977Z,1.90
2023-06-29T08:14:26.676Z,1.75
2023-06-29T08:16:56.459Z,1.80
2023-06-29T08:19:26.195Z,1.65
2023-06-29T08:24:42.695Z,1.67
2023-06-29T08:27:12.581Z,2.20
2023-06-29T08:29:42.955Z,1.95
2023-06-29T08:32:13.023Z,1.90
2023-06-29T08:34:42.821Z,1.85
2023-06-29T08:37:12.585Z,1.88
2023-06-29T08:39:44.891Z,1.92
2023-06-29T08:42:14.611Z,1.90
2023-06-29T08:44:44.337Z,2.15
2023-06-29T08:47:15.069Z,2.13
2023-06-29T08:49:46.049Z,1.80
2023-06-29T08:52:16.230Z,1.80
2023-06-29T08:54:49.292Z,1.70
2023-06-29T08:57:19.278Z,1.80
2023-06-29T08:59:50.212Z,1.60
2023-06-29T09:02:20.032Z,1.90
2023-06-29T09:04:50.773Z,1.58
2023-06-29T09:07:20.570Z,1.92
2023-06-29T09:09:52.958Z,2.08
2023-06-29T09:12:22.693Z,2.13
2023-06-29T09:14:52.481Z,1.52
2023-06-29T09:17:23.403Z,2.30
2023-06-29T09:19:58.530Z,2.20
2023-06-29T09:22:31.761Z,1.92
2023-06-29T09:25:16.236Z,1.60
2023-06-29T09:28:04.479Z,1.83
2023-06-29T09:30:38.770Z,1.95
2023-06-29T09:33:09.700Z,1.75
2023-06-29T09:35:40.927Z,2.10
2023-06-29T09:38:10.677Z,1.60
2023-06-29T09:40:53.680Z,1.70
2023-06-29T09:43:24.153Z,1.65
2023-06-29T09:45:55.452Z,1.80
2023-06-29T09:50:58.445Z,1.90
2023-06-29T09:53:34.918Z,1.90
2023-06-29T09:56:07.773Z,1.95
2023-06-29T09:58:37.541Z,1.73
2023-06-29T10:01:07.326Z,1.35
2023-06-29T10:03:37.164Z,1.92
2023-06-29T10:06:10.540Z,1.40
2023-06-29T10:08:41.517Z,1.90
2023-06-29T10:11:13.885Z,1.88
2023-06-29T10:13:46.962Z,1.42
2023-06-29T10:16:19.014Z,1.58
2023-06-29T10:18:51.568Z,1.58
2023-06-29T10:21:21.348Z,1.92
2023-06-29T10:23:52.311Z,1.55
2023-06-29T10:26:25.266Z,1.77
2023-06-29T10:28:54.965Z,1.67
2023-06-29T10:31:34.225Z,1.30
2023-06-29T10:34:04.110Z,1.70
2023-06-29T10:36:47.875Z,1.70
2023-06-29T10:39:32.691Z,1.75
2023-06-29T10:42:05.042Z,1.92
2023-06-29T10:44:37.967Z,1.50
2023-06-29T10:47:07.904Z,1.65
2023-06-29T10:49:37.680Z,1.30
2023-06-29T10:52:08.755Z,1.52
2023-06-29T10:54:38.525Z,1.52
2023-06-29T10:57:12.938Z,1.60
2023-06-29T10:59:42.958Z,1.27
2023-06-29T11:02:12.857Z,1.50
2023-06-29T11:04:43.889Z,1.50
2023-06-29T11:07:14.176Z,1.73
2023-06-29T11:09:43.945Z,1.60
2023-06-29T11:12:16.296Z,1.77
2023-06-29T11:14:46.020Z,1.45
2023-06-29T11:17:16.063Z,1.50
2023-06-29T11:19:49.631Z,1.75
2023-06-29T11:22:19.413Z,1.77
2023-06-29T11:24:49.757Z,1.60
2023-06-29T11:27:22.839Z,1.63
2023-06-29T11:29:57.366Z,1.42
2023-06-29T11:32:27.664Z,1.48
2023-06-29T11:35:01.618Z,1.50
2023-06-29T11:37:31.387Z,1.63
2023-06-29T11:40:01.131Z,1.70
2023-06-29T11:42:33.558Z,1.38
2023-06-29T11:45:04.706Z,1.63
2023-06-29T11:47:34.920Z,1.33
2023-06-29T11:50:05.750Z,1.42
2023-06-29T11:52:35.735Z,1.50
2023-06-29T11:55:07.502Z,1.60
2023-06-29T11:57:40.527Z,1.23
2023-06-29T12:00:30.439Z,1.30
2023-06-29T12:03:00.598Z,1.50
2023-06-29T12:05:31.198Z,1.65
2023-06-29T12:08:07.610Z,1.30
2023-06-29T12:10:38.825Z,1.90
2023-06-29T12:13:13.161Z,1.30
2023-06-29T12:18:19.183Z,1.42
2023-06-29T12:20:50.349Z,1.50
2023-06-29T12:23:20.160Z,1.42
2023-06-29T12:25:51.464Z,1.30
2023-06-29T12:28:23.827Z,1.50
2023-06-29T12:30:53.686Z,1.48
2023-06-29T12:33:23.434Z,1.60
2023-06-29T12:35:53.125Z,1.50
2023-06-29T12:38:22.885Z,1.40
2023-06-29T12:40:52.635Z,1.30
2023-06-29T12:43:24.998Z,1.20
2023-06-29T12:45:54.703Z,1.35
2023-06-29T12:48:24.470Z,1.45
2023-06-29T12:51:00.921Z,1.30
2023-06-29T12:53:31.057Z,1.23
2023-06-29T12:56:00.790Z,1.17
2023-06-29T12:58:34.624Z,1.35
2023-06-29T13:01:04.467Z,1.45
2023-06-29T13:03:34.549Z,2.10
2023-06-29T13:06:04.357Z,1.35
2023-06-29T13:08:34.989Z,1.27
2023-06-29T13:11:05.935Z,1.27
2023-06-29T13:13:38.807Z,1.50
2023-06-29T13:16:08.562Z,1.25
2023-06-29T13:18:38.258Z,1.48
2023-06-29T13:21:08.013Z,1.30
2023-06-29T13:23:37.820Z,1.30
2023-06-29T13:26:07.581Z,1.20
2023-06-29T13:28:39.908Z,1.00
2023-06-29T13:31:09.639Z,1.00
2023-06-29T13:33:39.390Z,1.20
2023-06-29T13:36:09.556Z,1.27
2023-06-29T13:38:39.284Z,1.23
2023-06-29T13:41:09.057Z,1.27
2023-06-29T13:43:41.414Z,1.30
2023-06-29T13:46:11.159Z,1.25
2023-06-29T13:48:40.966Z,1.08
2023-06-29T13:51:10.765Z,1.27
2023-06-29T13:53:40.455Z,1.08
2023-06-29T13:56:10.227Z,1.70
2023-06-29T13:58:42.545Z,1.60
2023-06-29T14:01:12.325Z,1.65
2023-06-29T14:03:42.224Z,1.40
2023-06-29T14:06:13.906Z,1.42
2023-06-29T14:08:43.890Z,1.60
2023-06-29T14:11:13.885Z,1.25
2023-06-29T14:13:46.826Z,1.40
2023-06-29T14:16:16.533Z,1.67
2023-06-29T14:18:46.285Z,1.08
2023-06-29T14:21:16.042Z,1.20
2023-06-29T14:23:45.807Z,1.50
2023-06-29T14:26:15.714Z,1.05
2023-06-29T14:28:48.156Z,1.20
2023-06-29T14:31:18.510Z,1.30
2023-06-29T14:33:48.821Z,1.15
2023-06-29T14:36:18.618Z,1.20
2023-06-29T14:38:49.468Z,1.50
2023-06-29T14:41:21.052Z,1.30
2023-06-29T14:43:53.830Z,1.33
2023-06-29T14:46:23.785Z,1.30
2023-06-29T14:48:53.560Z,1.60
2023-06-29T14:51:23.276Z,1.30
2023-06-29T14:53:52.943Z,1.70
2023-06-29T14:56:22.684Z,1.00
2023-06-29T14:58:55.159Z,1.30
2023-06-29T15:01:25.119Z,1.35
2023-06-29T15:03:55.688Z,1.35
2023-06-29T15:06:25.590Z,1.30
2023-06-29T15:08:55.721Z,1.38
2023-06-29T15:11:25.785Z,1.33
2023-06-29T15:13:58.269Z,1.38
2023-06-29T15:16:29.022Z,1.50
2023-06-29T15:19:00.589Z,1.42
2023-06-29T15:21:30.719Z,1.55
2023-06-29T15:24:00.446Z,1.85
2023-06-29T15:26:30.323Z,1.65
2023-06-29T15:29:03.668Z,1.60
2023-06-29T15:31:33.439Z,1.40
2023-06-29T15:34:03.152Z,1.42
2023-06-29T15:36:32.900Z,1.40
2023-06-29T15:39:03.724Z,1.30
2023-06-29T15:41:33.491Z,1.40
2023-06-29T15:44:05.829Z,1.50
2023-06-29T15:46:36.157Z,1.33
2023-06-29T15:49:05.879Z,1.40
2023-06-29T15:51:35.707Z,1.30
2023-06-29T15:54:05.444Z,1.27
2023-06-29T15:56:35.208Z,1.23
2023-06-29T15:59:07.547Z,1.45
2023-06-29T16:01:37.897Z,1.40
2023-06-29T16:04:07.996Z,1.55
2023-06-29T16:06:38.553Z,1.40
2023-06-29T16:09:08.296Z,1.30
2023-06-29T16:11:38.035Z,1.40
2023-06-29T16:14:10.438Z,1.35
2023-06-29T16:16:40.217Z,1.92
2023-06-29T16:19:10.999Z,1.13
2023-06-29T16:21:40.803Z,1.27
2023-06-29T16:24:10.559Z,1.40
2023-06-29T16:26:40.535Z,1.25
2023-06-29T16:29:13.439Z,1.60
2023-06-29T16:31:45.082Z,1.50
2023-06-29T16:34:15.373Z,1.40
2023-06-29T16:36:45.143Z,1.05
2023-06-29T16:39:14.861Z,1.45
2023-06-29T16:41:44.614Z,1.40
2023-06-29T16:44:16.948Z,1.55
2023-06-29T16:46:50.794Z,1.40
2023-06-29T16:49:20.651Z,1.58
2023-06-29T16:51:50.381Z,1.60
2023-06-29T16:54:20.152Z,1.30
2023-06-29T16:56:49.862Z,1.50
2023-06-29T16:59:22.305Z,1.25
2023-06-29T17:01:52.576Z,1.30
2023-06-29T17:04:23.733Z,1.40
2023-06-29T17:06:53.490Z,1.75
2023-06-29T17:09:23.190Z,1.42
2023-06-29T17:11:52.953Z,1.58
2023-06-29T17:14:25.278Z,1.15
2023-06-29T17:16:55.288Z,1.38
2023-06-29T17:19:25.090Z,1.30
2023-06-29T17:22:07.016Z,1.13
2023-06-29T17:24:36.755Z,1.33
2023-06-29T17:27:06.692Z,1.90
2023-06-29T17:29:40.422Z,3.25
2023-06-29T17:32:10.906Z,2.45
2023-06-29T17:34:41.087Z,1.60
2023-06-29T17:37:11.177Z,1.63
2023-06-29T17:39:40.896Z,1.95
2023-06-29T17:42:21.451Z,1.58
2023-06-29T17:44:53.821Z,3.63
2023-06-29T17:47:23.650Z,2.13
2023-06-29T17:49:53.486Z,1.60
2023-06-29T17:52:23.244Z,1.60
2023-06-29T17:54:52.963Z,1.48
2023-06-29T17:57:22.662Z,1.60
2023-06-29T17:59:54.979Z,1.60
2023-06-29T18:02:25.205Z,1.60
2023-06-29T18:04:56.829Z,7.88
2023-06-29T18:07:28.380Z,6.70
2023-06-29T18:10:00.220Z,4.07
2023-06-29T18:12:30.094Z,4.05
2023-06-29T18:15:02.505Z,3.58
2023-06-29T18:17:32.330Z,4.90
2023-06-29T18:20:02.115Z,2.05
2023-06-29T18:22:32.026Z,1.63
2023-06-29T18:25:02.152Z,1.80
2023-06-29T18:27:31.888Z,2.60
2023-06-29T18:30:04.219Z,2.92
2023-06-29T18:32:33.970Z,2.33
2023-06-29T18:35:04.033Z,2.00
2023-06-29T18:37:33.734Z,2.45
2023-06-29T18:40:04.051Z,2.28
2023-06-29T18:42:33.913Z,2.17
2023-06-29T18:45:07.076Z,3.00
2023-06-29T18:47:37.042Z,9.27
2023-06-29T18:50:07.741Z,4.35
2023-06-29T18:52:37.484Z,2.40
2023-06-29T18:55:07.834Z,3.25
2023-06-29T18:57:37.586Z,3.40
2023-06-29T19:00:10.932Z,3.33
2023-06-29T19:02:43.562Z,2.78
2023-06-29T19:05:13.561Z,2.30
2023-06-29T19:07:43.323Z,4.53
2023-06-29T19:10:13.530Z,4.28
2023-06-29T19:12:43.523Z,3.47
2023-06-29T19:15:16.092Z,3.20
2023-06-29T19:17:45.930Z,2.95
2023-06-29T19:20:16.395Z,3.20
2023-06-29T19:22:46.808Z,3.58
2023-06-29T19:25:16.687Z,5.93
2023-06-29T19:27:46.429Z,3.83
2023-06-29T19:30:18.810Z,4.70
2023-06-29T19:32:48.609Z,6.65
2023-06-29T19:35:18.499Z,5.63
2023-06-29T19:37:48.197Z,5.68
2023-06-29T19:40:17.950Z,5.05
2023-06-29T19:42:47.640Z,4.30
2023-06-29T19:45:19.961Z,5.10
2023-06-29T19:47:50.089Z,4.25
2023-06-29T19:50:20.731Z,4.95
2023-06-29T19:52:50.519Z,4.22
2023-06-29T19:55:20.304Z,4.60
2023-06-29T19:57:49.991Z,4.55
2023-06-29T20:00:22.543Z,4.30
2023-06-29T20:02:55.802Z,5.05
2023-06-29T20:05:25.660Z,3.90
2023-06-29T20:07:55.766Z,4.60
2023-06-29T20:10:25.646Z,3.35
2023-06-29T20:12:55.356Z,3.38
2023-06-29T20:15:27.866Z,4.00
2023-06-29T20:17:57.737Z,3.33
2023-06-29T20:20:27.632Z,2.78
2023-06-29T20:22:57.379Z,3.50
2023-06-29T20:25:28.036Z,3.00
2023-06-29T20:27:57.754Z,3.03
2023-06-29T20:30:30.089Z,3.17
2023-06-29T20:32:59.859Z,3.22
2023-06-29T20:35:30.854Z,3.35
2023-06-29T20:38:00.596Z,3.33
2023-06-29T20:40:30.296Z,3.13
2023-06-29T20:43:01.060Z,3.58
2023-06-29T20:45:33.377Z,4.03
2023-06-29T20:48:03.107Z,4.00
2023-06-29T20:50:32.876Z,3.67
2023-06-29T20:53:02.744Z,3.40
2023-06-29T20:55:32.530Z,4.35
2023-06-29T20:58:02.397Z,6.00
2023-06-29T21:00:35.567Z,6.57
2023-06-29T21:03:05.517Z,4.07
2023-06-29T21:05:36.091Z,4.13
2023-06-29T21:08:05.843Z,4.00
2023-06-29T21:10:35.550Z,4.85
2023-06-29T21:13:05.589Z,4.35
2023-06-29T21:15:38.095Z,4.25
2023-06-29T21:18:08.254Z,3.08
2023-06-29T21:20:38.693Z,3.38
2023-06-29T21:23:08.646Z,2.97
2023-06-29T21:25:38.659Z,3.53
2023-06-29T21:28:10.937Z,3.88
2023-06-29T21:30:44.312Z,3.90
2023-06-29T21:33:14.308Z,3.47
2023-06-29T21:35:44.454Z,3.85
2023-06-29T21:38:14.659Z,3.72
2023-06-29T21:40:44.376Z,3.13
2023-06-29T21:43:14.126Z,3.95
2023-06-29T21:45:46.587Z,4.50
2023-06-29T21:48:17.105Z,4.32
2023-06-29T21:50:47.131Z,4.50
2023-06-29T21:53:17.214Z,4.60
2023-06-29T21:55:47.294Z,3.72
2023-06-29T21:58:17.315Z,4.32
2023-06-29T22:00:49.683Z,4.18
2023-06-29T22:03:19.464Z,4.03
2023-06-29T22:05:49.230Z,4.45
2023-06-29T22:08:18.957Z,3.95
2023-06-29T22:10:48.813Z,4.45
2023-06-29T22:13:18.516Z,4.63
2023-06-29T22:15:53.672Z,5.65
2023-06-29T22:18:24.848Z,6.75
2023-06-29T22:20:54.726Z,6.03
2023-06-29T22:23:24.836Z,4.55
2023-06-29T22:25:54.586Z,4.70
2023-06-29T22:28:24.295Z,3.60
2023-06-29T22:30:56.675Z,4.15
2023-06-29T22:33:26.380Z,3.92
2023-06-29T22:35:56.185Z,3.67
2023-06-29T22:38:25.902Z,3.83
2023-06-29T22:40:55.727Z,4.15
2023-06-29T22:43:25.503Z,3.67
2023-06-29T22:45:57.769Z,3.45
2023-06-29T22:48:27.546Z,4.68
2023-06-29T22:50:57.595Z,4.43
2023-06-29T22:53:27.458Z,4.28
2023-06-29T22:55:57.265Z,3.60
2023-06-29T22:58:28.452Z,4.18
2023-06-29T23:01:00.914Z,4.03
2023-06-29T23:03:30.719Z,4.10
2023-06-29T23:06:00.617Z,4.25
2023-06-29T23:08:30.303Z,4.22
2023-06-29T23:11:00.074Z,4.45
2023-06-29T23:13:29.796Z,4.40
2023-06-29T23:16:02.150Z,4.00
2023-06-29T23:18:31.869Z,4.68
2023-06-29T23:21:03.618Z,4.40
2023-06-29T23:23:33.436Z,4.47
2023-06-29T23:26:03.181Z,4.68
2023-06-29T23:28:32.884Z,4.50
2023-06-29T23:31:05.310Z,4.47
2023-06-29T23:33:35.412Z,6.72
2023-06-29T23:36:05.143Z,5.68
2023-06-29T23:38:34.820Z,5.15
2023-06-29T23:41:05.253Z,5.20
2023-06-29T23:43:34.970Z,6.85
2023-06-29T23:46:07.731Z,5.45
2023-06-29T23:48:37.473Z,5.53
2023-06-29T23:51:07.213Z,4.50
2023-06-29T23:53:36.891Z,3.83
2023-06-29T23:56:07.146Z,3.80
2023-06-29T23:58:36.836Z,3.30
